• Join FlightAware (Why Join?)
  • Login
  • US Flag 
07:31AM EDT


 

Airport Tracker/Info


-or-


 

Live Flight TrackerFlight Track Log ✈ UCA3597 ✈ 26-Sep-2013 ✈ KBGM - KIAD

Flight Track Log - Related Links

Times and Time Zones

All times are in EDT time to prevent confusion due to time zone crossing. See the UCA3597 flight status page for this flight to view local times or setup timezone preferences in your user account.

Time Position Orientation Groundspeed Altitude Reporting Facility
EDT Latitude Longitude Course Direction KTS MPH feet Rate Location/Type
07:21PM 42.2192 -76.0294 211° Southwest 255 293 3,300  Level New York Center
07:22PM 42.1736 -76.0678 212° Southwest 184 212 4,400 1,260 Climbing New York Center
07:23PM 42.1261 -76.1086 213° Southwest 204 235 5,900 1,380 Climbing New York Center
07:24PM 42.0828 -76.1469 213° Southwest 204 235 7,300 1,020 Climbing New York Center
07:25PM 42.0286 -76.1900 211° Southwest 209 241 8,000 420 Climbing New York Center
07:26PM 41.8276 -76.1606 211° Southwest  Level Estimated
07:26PM 41.9678 -76.2464 215° Southwest 241 277 8,200  Level New York Center
07:27PM 41.9094 -76.2944 212° Southwest 248 285 9,700 1,320 Climbing New York Center
07:28PM 41.8553 -76.3375 211° Southwest 243 280 10,900 1,200 Climbing New York Center
07:29PM 41.8097 -76.3808 215° Southwest 237 273 12,100 1,140 Climbing New York Center
07:30PM 41.7511 -76.4289 211° Southwest 237 273 13,200 900 Climbing New York Center
07:31PM 41.6883 -76.4792 211° Southwest 243 280 14,000 360 Climbing New York Center
07:32PM 41.6253 -76.5347 213° Southwest 257 296 14,000  Level New York Center
07:33PM 41.5644 -76.5850 212° Southwest 272 313 14,000  Level New York Center
07:34PM 41.4994 -76.6375 211° Southwest 277 319 14,000  Level New York Center
07:35PM 41.4339 -76.6956 214° Southwest 282 325 14,000  Level New York Center
07:36PM 41.3686 -76.7506 212° Southwest 287 330 14,000  Level New York Center
07:37PM 41.2958 -76.7911 203° Southwest 287 330 14,000  Level New York Center
07:38PM 41.2181 -76.8033 187° South 279 321 14,000  Level New York Center
07:39PM 41.1403 -76.8186 188° South 284 327 14,000  Level New York Center
07:40PM 41.0644 -76.8339 189° South 284 327 14,000  Level New York Center
07:41PM 40.9781 -76.8508 188° South 284 327 14,000  Level New York Center
07:42PM 40.9006 -76.8631 187° South 284 327 14,000  Level New York Center
07:43PM 40.8225 -76.8781 188° South 284 327 14,000  Level New York Center
07:44PM 40.7464 -76.8989 192° South 284 327 14,000  Level New York Center
07:45PM 40.6703 -76.9219 193° South 284 327 14,000  Level New York Center
07:46PM 40.5939 -76.9453 193° South 284 327 14,000  Level New York Center
07:47PM 40.5197 -76.9714 195° South 284 327 14,000  Level New York Center
07:48PM 40.4392 -76.9942 192° South 284 327 14,000  Level New York Center
07:49PM 40.3694 -77.0153 193° South 284 327 14,000  Level New York Center
07:50PM 40.2867 -77.0403 193° South 284 327 14,000 -300 Level New York Center
07:51PM 40.2167 -77.0639 194° South 284 327 13,400 -720 Descending New York Center
07:52PM 40.1300 -77.0886 192° South 284 327 12,600 -780 Descending New York Center
07:53PM 40.0578 -77.1119 194° South 293 337 11,900 -720 Descending New York Center
07:55PM 39.8667 -77.1667 192° South 306 352 10,400 -780 Descending Potomac TRACON
07:56PM 39.8000 -77.2000 201° Southwest 295 339 9,600 -840 Descending Potomac TRACON
07:57PM 39.7333 -77.2500 210° Southwest 291 335 8,900 -840 Descending Potomac TRACON
07:58PM 39.6667 -77.3000 210° Southwest 280 322 8,100 -540 Descending Potomac TRACON
07:59PM 39.6000 -77.3500 210° Southwest 272 313 7,900 -360 Descending Potomac TRACON
08:00PM 39.5333 -77.3500 180° South 281 323 7,500 -480 Descending Potomac TRACON
08:01PM 39.4500 -77.3667 189° South 282 325 7,000 -480 Descending Potomac TRACON
08:02PM 39.3667 -77.3667 180° South 277 319 6,600 -900 Descending Potomac TRACON
08:03PM 39.3000 -77.3667 180° South 276 318 5,200 -1,020 Descending Potomac TRACON
08:04PM 39.2167 -77.3667 180° South 263 303 4,600 -600 Descending Potomac TRACON
08:05PM 39.1333 -77.3500 171° South 260 299 4,000 -300 Descending Potomac TRACON
08:06PM 39.0833 -77.3500 180° South 257 296 4,000 -240 Level Potomac TRACON
08:07PM 39.0000 -77.3500 180° South 262 302 3,600 -540 Descending Potomac TRACON
08:08PM 38.9333 -77.3500 180° South 259 298 3,000 -300 Descending Potomac TRACON
08:09PM 38.8667 -77.3667 191° South 248 285 3,000 -480 Level Potomac TRACON
08:10PM 38.8167 -77.4000 207° Southwest 228 262 2,100 -660 Descending Potomac TRACON
08:11PM 38.8667 -77.4333 333° Northwest 174 200 1,700 -720 Descending Potomac TRACON
08:12PM 38.9000 -77.4333 360° North 135 155 700 -960 Descending Potomac TRACON
08:14PM 38.9333 -77.4500 349° North  Level FlightAware Approximate
08:21PM 38.9474 -77.4599 349° North  Level Estimated
08:22PM 38.9474 -77.4599 349° North  Level Estimated